»·PEaware :: DAL2783 KSLC-KIDA

DAL2783 :: KSLC-KIDA

FLIGHT INFORMATION

Flight Status: Arrived
Operator:
Delta Air Lines
More flights by this operator :: More flights under this callsign
Pilot: Kevin M. (7)
Aircraft: BOEING 737-800
(B738)
More flights by this aircraft type
Origin: KSLC Salt Lake City Intl
United States
Destination: KIDA Idaho Falls Regl
United States
More flights between these airports :: More routes between these airports
Route: +SLC4 MLD
File this flight plan on PilotEdge
Remarks:
Altitude:
(Current/Filed)
26,000ft
Speed:
(Current/Filed)
470kts
Departed: 06-Dec-18 01:30 PM
Arrived: 06-Dec-18 02:26 PM
Distance/Time
Traveled:
163nm/0:56
Distance/Time
To Go:
Arrived

Flight Plot

Page will automatically refresh every two minutes.

Flight plan parsing failed; only flown route is shown


Map Options




Map Legend


Flown Route
Filed Route
Departure Airport
Arrival Airport
Navaid (VOR, NDB)
Fix

Horizontal Profiles

Position Reports

Time Latitude Longitude Heading Altitude Ground
Speed
06-Dec-18 13:08 40.789032 -111.983753 252 4223ft 0kts
06-Dec-18 13:09 40.789032 -111.983753 252 4223ft 0kts
06-Dec-18 13:10 40.789032 -111.983753 252 4223ft 0kts
06-Dec-18 13:11 40.789032 -111.983753 252 4223ft 0kts
06-Dec-18 13:12 40.789032 -111.983753 252 4223ft 0kts
06-Dec-18 13:13 40.789032 -111.983753 252 4223ft 0kts
06-Dec-18 13:14 40.789032 -111.983753 252 4223ft 0kts
06-Dec-18 13:15 40.789032 -111.983753 252 4223ft 0kts
06-Dec-18 13:16 40.789032 -111.983753 252 4223ft 0kts
06-Dec-18 13:17 40.789032 -111.983753 252 4224ft 0kts
06-Dec-18 13:18 40.789032 -111.983753 252 4224ft 0kts
06-Dec-18 13:19 40.789032 -111.983753 252 4224ft 0kts
06-Dec-18 13:20 40.789032 -111.983753 252 4224ft 0kts
06-Dec-18 13:21 40.789118 -111.983390 252 4224ft 2kts
06-Dec-18 13:22 40.788925 -111.982805 355 4224ft 0kts
06-Dec-18 13:23 40.788851 -111.982804 356 4224ft 0kts
06-Dec-18 13:24 40.789241 -111.982837 356 4224ft 7kts
06-Dec-18 13:25 40.791411 -111.982952 357 4221ft 18kts
06-Dec-18 13:26 40.789024 -111.976968 177 4223ft 30kts
06-Dec-18 13:27 40.779754 -111.975930 174 4227ft 33kts
06-Dec-18 13:28 40.774498 -111.974489 98 4227ft 6kts
06-Dec-18 13:29 40.784402 -111.974274 355 4224ft 135kts
06-Dec-18 13:30 40.831860 -111.983479 350 6428ft 205kts
06-Dec-18 13:31 40.897961 -111.994381 351 7960ft 255kts
06-Dec-18 13:32 40.970666 -112.005342 351 10376ft 271kts
06-Dec-18 13:33 41.046960 -112.028697 342 12085ft 318kts
06-Dec-18 13:34 41.135410 -112.060612 342 13952ft 329kts
06-Dec-18 13:35 41.227539 -112.093970 342 15159ft 371kts
06-Dec-18 13:36 41.332194 -112.131989 342 15682ft 406kts
06-Dec-18 13:37 41.441898 -112.171886 342 16983ft 415kts
06-Dec-18 13:38 41.553756 -112.212706 342 18391ft 424kts
06-Dec-18 13:39 41.668768 -112.254830 342 19841ft 433kts
06-Dec-18 13:40 41.787795 -112.282607 356 21199ft 445kts
06-Dec-18 13:41 41.911987 -112.287861 356 22209ft 445kts
06-Dec-18 13:42 42.037669 -112.293073 356 22214ft 462kts
06-Dec-18 13:44 42.163510 -112.298284 356 22209ft 463kts
06-Dec-18 13:45 42.292168 -112.303630 356 22214ft 463kts
06-Dec-18 13:46 42.418652 -112.308892 356 22235ft 452kts
06-Dec-18 13:47 42.543534 -112.314133 356 22196ft 447kts
06-Dec-18 13:48 42.667841 -112.308592 357 21115ft 453kts
06-Dec-18 13:49 42.792457 -112.315890 355 20211ft 436kts
06-Dec-18 13:50 42.910084 -112.323365 354 17821ft 426kts
06-Dec-18 13:51 43.025695 -112.343953 352 16962ft 417kts
06-Dec-18 13:52 43.140784 -112.347277 1 13682ft 415kts
06-Dec-18 13:53 43.246190 -112.334172 19 10132ft 353kts
06-Dec-18 13:54 43.322102 -112.268601 27 8012ft 287kts
06-Dec-18 13:55 43.389886 -112.224785 359 8621ft 265kts
06-Dec-18 13:56 43.441215 -112.285032 284 11067ft 266kts
06-Dec-18 13:57 43.457398 -112.388992 280 11999ft 284kts
06-Dec-18 13:58 43.424378 -112.481792 223 12003ft 288kts
06-Dec-18 13:59 43.364141 -112.553556 222 12009ft 288kts
06-Dec-18 14:00 43.303174 -112.624686 213 12001ft 289kts
06-Dec-18 14:00 43.238913 -112.623173 148 12026ft 303kts
06-Dec-18 14:02 43.204757 -112.503154 92 11338ft 292kts
06-Dec-18 14:03 43.201662 -112.393672 92 10036ft 285kts
06-Dec-18 14:03 43.213054 -112.309958 35 8962ft 274kts
06-Dec-18 14:04 43.284021 -112.285958 21 7711ft 266kts
06-Dec-18 14:06 43.362207 -112.236920 35 6497ft 264kts
06-Dec-18 14:07 43.416672 -112.177513 36 6542ft 214kts
06-Dec-18 14:07 43.449235 -112.142430 35 5931ft 172kts
06-Dec-18 14:09 43.487166 -112.101633 36 5049ft 132kts
06-Dec-18 14:09 43.509757 -112.067849 53 5363ft 201kts
06-Dec-18 14:11 43.575818 -112.006112 35 7482ft 291kts
06-Dec-18 14:11 43.626122 -111.953419 35 7459ft 273kts
06-Dec-18 14:12 43.686677 -111.890572 35 7514ft 268kts
06-Dec-18 14:13 43.751287 -111.838903 1 7991ft 271kts
06-Dec-18 14:14 43.805541 -111.892440 301 7973ft 234kts
06-Dec-18 14:15 43.837242 -111.964967 301 7982ft 216kts
06-Dec-18 14:16 43.861381 -112.039361 262 7993ft 218kts
06-Dec-18 14:17 43.814524 -112.076279 157 7992ft 226kts
06-Dec-18 14:18 43.780921 -112.005795 111 7986ft 226kts
06-Dec-18 14:19 43.753517 -111.928244 141 7992ft 226kts
06-Dec-18 14:20 43.693270 -111.906991 171 7985ft 225kts
06-Dec-18 14:21 43.632046 -111.901770 207 7992ft 222kts
06-Dec-18 14:22 43.597077 -111.966572 232 8022ft 186kts
06-Dec-18 14:23 43.569120 -112.011448 229 7994ft 144kts
06-Dec-18 14:24 43.535043 -112.050299 220 6012ft 177kts
06-Dec-18 14:25 43.506127 -112.081361 220 4741ft 39kts
06-Dec-18 14:26 43.503240 -112.082518 37 4735ft 15kts

Navigation Log

Ident Type
Flight plan parsing failed, navigation log unavailable